sensor_id;sensor_type;location;lat;lon;timestamp;P1;durP1;ratioP1;P2;durP2;ratioP2
86201;SDS011;76853;48.008;20.694;2024-03-02T00:00:25;29.63;;;29.22;;
86201;SDS011;76853;48.008;20.694;2024-03-02T00:01:30;30.93;;;30.52;;
86201;SDS011;76853;48.008;20.694;2024-03-02T00:02:34;34.27;;;33.33;;
86201;SDS011;76853;48.008;20.694;2024-03-02T00:03:45;36.77;;;36.40;;
86201;SDS011;76853;48.008;20.694;2024-03-02T00:04:49;36.75;;;36.35;;
86201;SDS011;76853;48.008;20.694;2024-03-02T00:05:52;36.10;;;35.80;;
86201;SDS011;76853;48.008;20.694;2024-03-02T00:06:55;37.33;;;36.50;;
86201;SDS011;76853;48.008;20.694;2024-03-02T00:07:59;36.98;;;36.03;;
86201;SDS011;76853;48.008;20.694;2024-03-02T00:09:02;39.40;;;38.15;;
86201;SDS011;76853;48.008;20.694;2024-03-02T00:10:10;42.37;;;41.45;;
86201;SDS011;76853;48.008;20.694;2024-03-02T00:11:17;42.55;;;41.68;;
86201;SDS011;76853;48.008;20.694;2024-03-02T00:12:22;42.52;;;41.60;;
86201;SDS011;76853;48.008;20.694;2024-03-02T00:13:26;37.42;;;36.45;;
86201;SDS011;76853;48.008;20.694;2024-03-02T00:14:29;36.55;;;35.48;;
86201;SDS011;76853;48.008;20.694;2024-03-02T00:16:55;33.90;;;33.62;;
86201;SDS011;76853;48.008;20.694;2024-03-02T00:18:00;34.15;;;33.68;;
86201;SDS011;76853;48.008;20.694;2024-03-02T00:19:07;33.20;;;32.83;;
86201;SDS011;76853;48.008;20.694;2024-03-02T00:20:15;32.07;;;31.65;;
86201;SDS011;76853;48.008;20.694;2024-03-02T00:21:25;30.17;;;30.00;;
86201;SDS011;76853;48.008;20.694;2024-03-02T00:22:35;30.70;;;30.48;;
86201;SDS011;76853;48.008;20.694;2024-03-02T00:23:40;31.33;;;31.33;;
86201;SDS011;76853;48.008;20.694;2024-03-02T00:24:44;33.82;;;33.20;;
86201;SDS011;76853;48.008;20.694;2024-03-02T00:25:52;34.15;;;33.82;;
86201;SDS011;76853;48.008;20.694;2024-03-02T00:26:58;32.07;;;31.45;;
86201;SDS011;76853;48.008;20.694;2024-03-02T00:28:04;33.67;;;33.15;;
86201;SDS011;76853;48.008;20.694;2024-03-02T00:29:10;43.62;;;42.32;;
86201;SDS011;76853;48.008;20.694;2024-03-02T00:30:35;44.30;;;43.08;;
86201;SDS011;76853;48.008;20.694;2024-03-02T00:31:53;39.88;;;38.70;;
86201;SDS011;76853;48.008;20.694;2024-03-02T00:33:00;41.57;;;40.15;;
86201;SDS011;76853;48.008;20.694;2024-03-02T00:34:04;41.40;;;40.95;;
86201;SDS011;76853;48.008;20.694;2024-03-02T00:35:14;41.17;;;40.17;;
86201;SDS011;76853;48.008;20.694;2024-03-02T00:36:21;42.72;;;41.45;;
86201;SDS011;76853;48.008;20.694;2024-03-02T00:37:28;40.15;;;39.33;;
86201;SDS011;76853;48.008;20.694;2024-03-02T00:38:32;39.87;;;39.67;;
86201;SDS011;76853;48.008;20.694;2024-03-02T00:39:37;40.32;;;39.98;;
86201;SDS011;76853;48.008;20.694;2024-03-02T00:40:43;40.78;;;40.15;;
86201;SDS011;76853;48.008;20.694;2024-03-02T00:41:48;39.27;;;38.85;;
86201;SDS011;76853;48.008;20.694;2024-03-02T00:43:01;40.13;;;39.45;;
86201;SDS011;76853;48.008;20.694;2024-03-02T00:44:11;40.80;;;39.70;;
86201;SDS011;76853;48.008;20.694;2024-03-02T00:45:15;39.93;;;38.90;;
86201;SDS011;76853;48.008;20.694;2024-03-02T00:46:19;40.07;;;39.38;;
86201;SDS011;76853;48.008;20.694;2024-03-02T00:47:23;39.85;;;38.83;;
86201;SDS011;76853;48.008;20.694;2024-03-02T00:48:27;39.97;;;38.80;;
86201;SDS011;76853;48.008;20.694;2024-03-02T00:49:31;39.53;;;38.57;;
86201;SDS011;76853;48.008;20.694;2024-03-02T00:50:34;37.58;;;37.13;;
86201;SDS011;76853;48.008;20.694;2024-03-02T00:51:37;36.45;;;35.50;;
86201;SDS011;76853;48.008;20.694;2024-03-02T00:52:42;36.08;;;35.15;;
86201;SDS011;76853;48.008;20.694;2024-03-02T00:53:46;35.33;;;35.27;;
86201;SDS011;76853;48.008;20.694;2024-03-02T00:54:50;35.35;;;35.30;;
86201;SDS011;76853;48.008;20.694;2024-03-02T00:55:55;37.18;;;36.65;;
86201;SDS011;76853;48.008;20.694;2024-03-02T00:56:58;37.95;;;37.13;;
86201;SDS011;76853;48.008;20.694;2024-03-02T00:58:04;38.28;;;37.43;;
86201;SDS011;76853;48.008;20.694;2024-03-02T00:59:07;37.25;;;37.17;;
86201;SDS011;76853;48.008;20.694;2024-03-02T01:00:14;36.67;;;36.13;;
86201;SDS011;76853;48.008;20.694;2024-03-02T01:01:22;37.02;;;36.88;;
86201;SDS011;76853;48.008;20.694;2024-03-02T01:02:26;37.30;;;36.72;;
86201;SDS011;76853;48.008;20.694;2024-03-02T01:03:35;37.50;;;37.02;;
86201;SDS011;76853;48.008;20.694;2024-03-02T01:04:40;36.30;;;36.05;;
86201;SDS011;76853;48.008;20.694;2024-03-02T01:05:45;37.92;;;36.88;;
86201;SDS011;76853;48.008;20.694;2024-03-02T01:06:48;38.40;;;37.95;;
86201;SDS011;76853;48.008;20.694;2024-03-02T01:07:52;37.70;;;37.23;;
86201;SDS011;76853;48.008;20.694;2024-03-02T01:08:57;37.00;;;36.77;;
86201;SDS011;76853;48.008;20.694;2024-03-02T01:10:03;36.20;;;35.97;;
86201;SDS011;76853;48.008;20.694;2024-03-02T01:11:07;35.93;;;35.72;;
86201;SDS011;76853;48.008;20.694;2024-03-02T01:12:12;36.67;;;35.88;;
86201;SDS011;76853;48.008;20.694;2024-03-02T01:13:18;36.07;;;35.52;;
86201;SDS011;76853;48.008;20.694;2024-03-02T01:14:22;37.57;;;37.37;;
86201;SDS011;76853;48.008;20.694;2024-03-02T01:15:25;41.02;;;40.52;;
86201;SDS011;76853;48.008;20.694;2024-03-02T01:16:29;39.23;;;38.40;;
86201;SDS011;76853;48.008;20.694;2024-03-02T01:17:32;38.07;;;36.97;;
86201;SDS011;76853;48.008;20.694;2024-03-02T01:18:39;38.48;;;37.53;;
86201;SDS011;76853;48.008;20.694;2024-03-02T01:19:42;40.02;;;39.23;;
86201;SDS011;76853;48.008;20.694;2024-03-02T01:20:47;39.42;;;38.55;;
86201;SDS011;76853;48.008;20.694;2024-03-02T01:21:52;39.38;;;38.38;;
86201;SDS011;76853;48.008;20.694;2024-03-02T01:22:55;37.72;;;37.68;;
86201;SDS011;76853;48.008;20.694;2024-03-02T01:24:02;38.47;;;37.57;;
86201;SDS011;76853;48.008;20.694;2024-03-02T01:25:06;38.25;;;36.95;;
86201;SDS011;76853;48.008;20.694;2024-03-02T01:26:11;38.53;;;37.92;;
86201;SDS011;76853;48.008;20.694;2024-03-02T01:27:15;38.62;;;37.73;;
86201;SDS011;76853;48.008;20.694;2024-03-02T01:28:19;39.13;;;38.60;;
86201;SDS011;76853;48.008;20.694;2024-03-02T01:29:30;38.55;;;37.32;;
86201;SDS011;76853;48.008;20.694;2024-03-02T01:30:34;37.47;;;37.07;;
86201;SDS011;76853;48.008;20.694;2024-03-02T01:31:38;36.67;;;36.13;;
86201;SDS011;76853;48.008;20.694;2024-03-02T01:32:45;39.30;;;38.20;;
86201;SDS011;76853;48.008;20.694;2024-03-02T01:33:48;36.35;;;36.27;;
86201;SDS011;76853;48.008;20.694;2024-03-02T01:34:55;36.90;;;36.43;;
86201;SDS011;76853;48.008;20.694;2024-03-02T01:36:01;38.02;;;36.88;;
86201;SDS011;76853;48.008;20.694;2024-03-02T01:37:04;37.13;;;36.47;;
86201;SDS011;76853;48.008;20.694;2024-03-02T01:38:08;36.23;;;35.37;;
86201;SDS011;76853;48.008;20.694;2024-03-02T01:39:15;37.80;;;36.83;;
86201;SDS011;76853;48.008;20.694;2024-03-02T01:40:19;35.72;;;35.25;;
86201;SDS011;76853;48.008;20.694;2024-03-02T01:41:31;38.07;;;37.08;;
86201;SDS011;76853;48.008;20.694;2024-03-02T01:42:40;37.02;;;36.68;;
86201;SDS011;76853;48.008;20.694;2024-03-02T01:43:44;38.08;;;37.65;;
86201;SDS011;76853;48.008;20.694;2024-03-02T01:44:48;36.50;;;36.37;;
86201;SDS011;76853;48.008;20.694;2024-03-02T01:45:52;39.43;;;38.88;;
86201;SDS011;76853;48.008;20.694;2024-03-02T01:46:57;39.22;;;38.45;;
86201;SDS011;76853;48.008;20.694;2024-03-02T01:48:01;40.47;;;39.50;;
86201;SDS011;76853;48.008;20.694;2024-03-02T01:49:05;41.68;;;40.80;;
86201;SDS011;76853;48.008;20.694;2024-03-02T01:50:10;43.00;;;41.82;;
86201;SDS011;76853;48.008;20.694;2024-03-02T01:51:15;49.27;;;47.70;;
86201;SDS011;76853;48.008;20.694;2024-03-02T01:52:19;77.08;;;75.00;;
86201;SDS011;76853;48.008;20.694;2024-03-02T01:53:23;84.20;;;81.00;;
86201;SDS011;76853;48.008;20.694;2024-03-02T01:54:26;67.08;;;64.87;;
86201;SDS011;76853;48.008;20.694;2024-03-02T01:55:30;56.18;;;54.73;;
86201;SDS011;76853;48.008;20.694;2024-03-02T01:56:33;48.50;;;47.32;;
86201;SDS011;76853;48.008;20.694;2024-03-02T01:57:37;46.12;;;44.98;;
86201;SDS011;76853;48.008;20.694;2024-03-02T01:58:41;42.10;;;41.12;;
86201;SDS011;76853;48.008;20.694;2024-03-02T01:59:46;41.33;;;40.42;;
86201;SDS011;76853;48.008;20.694;2024-03-02T02:00:59;48.88;;;47.68;;
86201;SDS011;76853;48.008;20.694;2024-03-02T02:02:05;53.38;;;51.90;;
86201;SDS011;76853;48.008;20.694;2024-03-02T02:03:08;57.22;;;55.57;;
86201;SDS011;76853;48.008;20.694;2024-03-02T02:04:15;60.13;;;58.20;;
86201;SDS011;76853;48.008;20.694;2024-03-02T02:05:18;61.67;;;59.40;;
86201;SDS011;76853;48.008;20.694;2024-03-02T02:06:21;59.53;;;57.42;;
86201;SDS011;76853;48.008;20.694;2024-03-02T02:07:31;58.92;;;57.10;;
86201;SDS011;76853;48.008;20.694;2024-03-02T02:08:48;56.38;;;54.77;;
86201;SDS011;76853;48.008;20.694;2024-03-02T02:09:51;55.17;;;53.47;;
86201;SDS011;76853;48.008;20.694;2024-03-02T02:10:54;59.20;;;56.88;;
86201;SDS011;76853;48.008;20.694;2024-03-02T02:11:58;57.77;;;56.07;;
86201;SDS011;76853;48.008;20.694;2024-03-02T02:13:02;57.18;;;56.00;;
86201;SDS011;76853;48.008;20.694;2024-03-02T02:14:06;59.18;;;57.50;;
86201;SDS011;76853;48.008;20.694;2024-03-02T02:16:35;60.35;;;58.83;;
86201;SDS011;76853;48.008;20.694;2024-03-02T02:17:39;63.03;;;61.17;;
86201;SDS011;76853;48.008;20.694;2024-03-02T02:18:46;65.02;;;62.87;;
86201;SDS011;76853;48.008;20.694;2024-03-02T02:19:50;59.47;;;57.53;;
86201;SDS011;76853;48.008;20.694;2024-03-02T02:20:54;55.90;;;54.57;;
86201;SDS011;76853;48.008;20.694;2024-03-02T02:21:58;53.47;;;52.38;;
86201;SDS011;76853;48.008;20.694;2024-03-02T02:23:02;53.58;;;51.97;;
86201;SDS011;76853;48.008;20.694;2024-03-02T02:24:15;54.55;;;53.40;;
86201;SDS011;76853;48.008;20.694;2024-03-02T02:25:19;53.48;;;52.22;;
86201;SDS011;76853;48.008;20.694;2024-03-02T02:26:22;51.60;;;50.62;;
86201;SDS011;76853;48.008;20.694;2024-03-02T02:27:25;53.35;;;52.05;;
86201;SDS011;76853;48.008;20.694;2024-03-02T02:28:32;47.52;;;46.32;;
86201;SDS011;76853;48.008;20.694;2024-03-02T02:29:36;44.60;;;43.58;;
86201;SDS011;76853;48.008;20.694;2024-03-02T02:30:39;47.78;;;46.53;;
86201;SDS011;76853;48.008;20.694;2024-03-02T02:31:45;48.58;;;47.38;;
86201;SDS011;76853;48.008;20.694;2024-03-02T02:32:48;47.45;;;46.35;;
86201;SDS011;76853;48.008;20.694;2024-03-02T02:33:52;48.02;;;46.85;;
86201;SDS011;76853;48.008;20.694;2024-03-02T02:34:56;48.85;;;47.53;;
86201;SDS011;76853;48.008;20.694;2024-03-02T02:35:59;50.12;;;48.90;;
86201;SDS011;76853;48.008;20.694;2024-03-02T02:37:03;52.08;;;50.75;;
86201;SDS011;76853;48.008;20.694;2024-03-02T02:38:06;54.70;;;53.28;;
86201;SDS011;76853;48.008;20.694;2024-03-02T02:39:11;57.27;;;55.57;;
86201;SDS011;76853;48.008;20.694;2024-03-02T02:40:21;59.88;;;58.13;;
86201;SDS011;76853;48.008;20.694;2024-03-02T02:41:24;62.25;;;60.92;;
86201;SDS011;76853;48.008;20.694;2024-03-02T02:42:27;65.33;;;63.93;;
86201;SDS011;76853;48.008;20.694;2024-03-02T02:43:31;72.03;;;69.73;;
86201;SDS011;76853;48.008;20.694;2024-03-02T02:44:35;74.07;;;72.40;;
86201;SDS011;76853;48.008;20.694;2024-03-02T02:45:38;78.28;;;76.80;;
86201;SDS011;76853;48.008;20.694;2024-03-02T02:46:41;87.18;;;85.65;;
86201;SDS011;76853;48.008;20.694;2024-03-02T02:47:47;83.58;;;81.88;;
86201;SDS011;76853;48.008;20.694;2024-03-02T02:48:51;68.48;;;66.38;;
86201;SDS011;76853;48.008;20.694;2024-03-02T02:49:56;69.57;;;68.17;;
86201;SDS011;76853;48.008;20.694;2024-03-02T02:51:00;62.98;;;61.48;;
86201;SDS011;76853;48.008;20.694;2024-03-02T02:52:06;52.88;;;51.50;;
86201;SDS011;76853;48.008;20.694;2024-03-02T02:53:09;42.55;;;41.42;;
86201;SDS011;76853;48.008;20.694;2024-03-02T02:54:15;39.48;;;38.92;;
86201;SDS011;76853;48.008;20.694;2024-03-02T02:55:19;39.78;;;38.83;;
86201;SDS011;76853;48.008;20.694;2024-03-02T02:56:23;39.62;;;38.55;;
86201;SDS011;76853;48.008;20.694;2024-03-02T02:57:27;39.98;;;39.45;;
86201;SDS011;76853;48.008;20.694;2024-03-02T02:58:33;38.33;;;37.63;;
86201;SDS011;76853;48.008;20.694;2024-03-02T02:59:37;37.63;;;36.73;;
86201;SDS011;76853;48.008;20.694;2024-03-02T03:00:42;35.60;;;35.08;;
86201;SDS011;76853;48.008;20.694;2024-03-02T03:01:47;33.48;;;32.92;;
86201;SDS011;76853;48.008;20.694;2024-03-02T03:02:51;34.10;;;33.72;;
86201;SDS011;76853;48.008;20.694;2024-03-02T03:04:00;33.07;;;32.50;;
86201;SDS011;76853;48.008;20.694;2024-03-02T03:05:08;33.00;;;32.50;;
86201;SDS011;76853;48.008;20.694;2024-03-02T03:06:14;35.20;;;34.90;;
86201;SDS011;76853;48.008;20.694;2024-03-02T03:07:19;34.13;;;34.03;;
86201;SDS011;76853;48.008;20.694;2024-03-02T03:08:24;34.68;;;34.32;;
86201;SDS011;76853;48.008;20.694;2024-03-02T03:09:28;34.57;;;34.07;;
86201;SDS011;76853;48.008;20.694;2024-03-02T03:10:33;33.73;;;33.32;;
86201;SDS011;76853;48.008;20.694;2024-03-02T03:11:37;33.55;;;33.07;;
86201;SDS011;76853;48.008;20.694;2024-03-02T03:12:41;34.65;;;34.05;;
86201;SDS011;76853;48.008;20.694;2024-03-02T03:13:48;33.57;;;33.35;;
86201;SDS011;76853;48.008;20.694;2024-03-02T03:14:52;35.70;;;35.28;;
86201;SDS011;76853;48.008;20.694;2024-03-02T03:15:56;38.00;;;37.72;;
86201;SDS011;76853;48.008;20.694;2024-03-02T03:17:02;37.73;;;37.25;;
86201;SDS011;76853;48.008;20.694;2024-03-02T03:18:06;38.48;;;38.00;;
86201;SDS011;76853;48.008;20.694;2024-03-02T03:19:10;41.47;;;40.32;;
86201;SDS011;76853;48.008;20.694;2024-03-02T03:20:14;44.07;;;43.15;;
86201;SDS011;76853;48.008;20.694;2024-03-02T03:21:19;48.43;;;47.25;;
86201;SDS011;76853;48.008;20.694;2024-03-02T03:22:22;46.30;;;44.88;;
86201;SDS011;76853;48.008;20.694;2024-03-02T03:23:29;45.73;;;44.38;;
86201;SDS011;76853;48.008;20.694;2024-03-02T03:24:32;46.48;;;45.08;;
86201;SDS011;76853;48.008;20.694;2024-03-02T03:25:36;48.52;;;46.90;;
86201;SDS011;76853;48.008;20.694;2024-03-02T03:26:39;49.93;;;48.27;;
86201;SDS011;76853;48.008;20.694;2024-03-02T03:27:42;50.32;;;48.97;;
86201;SDS011;76853;48.008;20.694;2024-03-02T03:28:47;49.03;;;47.58;;
86201;SDS011;76853;48.008;20.694;2024-03-02T03:29:51;47.63;;;46.50;;
86201;SDS011;76853;48.008;20.694;2024-03-02T03:30:55;46.48;;;45.10;;
86201;SDS011;76853;48.008;20.694;2024-03-02T03:31:59;45.27;;;43.95;;
86201;SDS011;76853;48.008;20.694;2024-03-02T03:33:02;40.93;;;40.58;;
86201;SDS011;76853;48.008;20.694;2024-03-02T03:34:09;39.85;;;39.25;;
86201;SDS011;76853;48.008;20.694;2024-03-02T03:35:18;38.45;;;37.90;;
86201;SDS011;76853;48.008;20.694;2024-03-02T03:36:22;36.87;;;36.10;;
86201;SDS011;76853;48.008;20.694;2024-03-02T03:37:27;36.08;;;35.30;;
86201;SDS011;76853;48.008;20.694;2024-03-02T03:38:38;35.72;;;34.72;;
86201;SDS011;76853;48.008;20.694;2024-03-02T03:39:42;35.05;;;34.28;;
86201;SDS011;76853;48.008;20.694;2024-03-02T03:40:45;34.62;;;33.92;;
86201;SDS011;76853;48.008;20.694;2024-03-02T03:41:49;35.78;;;35.20;;
86201;SDS011;76853;48.008;20.694;2024-03-02T03:42:52;36.27;;;36.12;;
86201;SDS011;76853;48.008;20.694;2024-03-02T03:44:01;37.95;;;36.95;;
86201;SDS011;76853;48.008;20.694;2024-03-02T03:45:07;38.98;;;37.80;;
86201;SDS011;76853;48.008;20.694;2024-03-02T03:46:11;41.75;;;40.43;;
86201;SDS011;76853;48.008;20.694;2024-03-02T03:47:15;42.43;;;41.18;;
86201;SDS011;76853;48.008;20.694;2024-03-02T03:48:18;52.97;;;51.60;;
86201;SDS011;76853;48.008;20.694;2024-03-02T03:49:26;54.37;;;53.25;;
86201;SDS011;76853;48.008;20.694;2024-03-02T03:50:31;50.85;;;50.02;;
86201;SDS011;76853;48.008;20.694;2024-03-02T03:51:37;44.03;;;43.03;;
86201;SDS011;76853;48.008;20.694;2024-03-02T03:52:41;42.42;;;41.93;;
86201;SDS011;76853;48.008;20.694;2024-03-02T03:53:45;36.93;;;36.22;;
86201;SDS011;76853;48.008;20.694;2024-03-02T03:54:48;35.30;;;35.00;;
86201;SDS011;76853;48.008;20.694;2024-03-02T03:55:56;35.80;;;34.97;;
86201;SDS011;76853;48.008;20.694;2024-03-02T03:57:00;32.60;;;32.40;;
86201;SDS011;76853;48.008;20.694;2024-03-02T03:58:04;32.38;;;32.10;;
86201;SDS011;76853;48.008;20.694;2024-03-02T03:59:08;32.23;;;32.17;;
86201;SDS011;76853;48.008;20.694;2024-03-02T04:00:14;33.07;;;32.48;;
86201;SDS011;76853;48.008;20.694;2024-03-02T04:01:19;31.83;;;31.53;;
86201;SDS011;76853;48.008;20.694;2024-03-02T04:02:27;31.52;;;31.42;;
86201;SDS011;76853;48.008;20.694;2024-03-02T04:03:33;32.28;;;32.23;;
86201;SDS011;76853;48.008;20.694;2024-03-02T04:04:37;33.12;;;32.78;;
86201;SDS011;76853;48.008;20.694;2024-03-02T04:05:43;33.05;;;32.12;;
86201;SDS011;76853;48.008;20.694;2024-03-02T04:06:47;33.92;;;33.18;;
86201;SDS011;76853;48.008;20.694;2024-03-02T04:07:51;32.58;;;32.25;;
86201;SDS011;76853;48.008;20.694;2024-03-02T04:08:57;35.30;;;34.28;;
86201;SDS011;76853;48.008;20.694;2024-03-02T04:10:01;34.35;;;33.82;;
86201;SDS011;76853;48.008;20.694;2024-03-02T04:11:07;33.98;;;33.78;;
86201;SDS011;76853;48.008;20.694;2024-03-02T04:12:11;34.20;;;33.27;;
86201;SDS011;76853;48.008;20.694;2024-03-02T04:13:18;36.22;;;35.07;;
86201;SDS011;76853;48.008;20.694;2024-03-02T04:14:22;34.05;;;33.62;;
86201;SDS011;76853;48.008;20.694;2024-03-02T04:15:26;33.15;;;32.65;;
86201;SDS011;76853;48.008;20.694;2024-03-02T04:16:29;34.13;;;33.62;;
86201;SDS011;76853;48.008;20.694;2024-03-02T04:17:33;34.77;;;34.23;;
86201;SDS011;76853;48.008;20.694;2024-03-02T04:18:39;35.05;;;34.30;;
86201;SDS011;76853;48.008;20.694;2024-03-02T04:19:43;34.32;;;33.78;;
86201;SDS011;76853;48.008;20.694;2024-03-02T04:20:47;35.65;;;35.10;;
86201;SDS011;76853;48.008;20.694;2024-03-02T04:21:53;35.90;;;34.98;;
86201;SDS011;76853;48.008;20.694;2024-03-02T04:22:56;36.88;;;36.27;;
86201;SDS011;76853;48.008;20.694;2024-03-02T04:24:02;34.05;;;33.83;;
86201;SDS011;76853;48.008;20.694;2024-03-02T04:25:06;43.12;;;42.88;;
86201;SDS011;76853;48.008;20.694;2024-03-02T04:26:12;63.23;;;62.10;;
86201;SDS011;76853;48.008;20.694;2024-03-02T04:27:18;56.75;;;55.65;;
86201;SDS011;76853;48.008;20.694;2024-03-02T04:28:21;49.22;;;48.33;;
86201;SDS011;76853;48.008;20.694;2024-03-02T04:29:25;42.45;;;42.03;;
86201;SDS011;76853;48.008;20.694;2024-03-02T04:30:28;38.15;;;37.88;;
86201;SDS011;76853;48.008;20.694;2024-03-02T04:31:35;37.55;;;37.12;;
86201;SDS011;76853;48.008;20.694;2024-03-02T04:32:39;35.23;;;34.35;;
86201;SDS011;76853;48.008;20.694;2024-03-02T04:33:49;35.12;;;34.78;;
86201;SDS011;76853;48.008;20.694;2024-03-02T04:34:53;33.92;;;33.65;;
86201;SDS011;76853;48.008;20.694;2024-03-02T04:35:57;34.43;;;34.38;;
86201;SDS011;76853;48.008;20.694;2024-03-02T04:37:01;33.55;;;33.33;;
86201;SDS011;76853;48.008;20.694;2024-03-02T04:38:04;35.00;;;34.27;;
86201;SDS011;76853;48.008;20.694;2024-03-02T04:39:08;36.25;;;35.60;;
86201;SDS011;76853;48.008;20.694;2024-03-02T04:40:12;39.05;;;38.23;;
86201;SDS011;76853;48.008;20.694;2024-03-02T04:41:18;41.15;;;39.95;;
86201;SDS011;76853;48.008;20.694;2024-03-02T04:42:23;38.63;;;38.18;;
86201;SDS011;76853;48.008;20.694;2024-03-02T04:43:28;36.78;;;36.37;;
86201;SDS011;76853;48.008;20.694;2024-03-02T04:44:32;36.80;;;36.43;;
86201;SDS011;76853;48.008;20.694;2024-03-02T04:45:37;38.67;;;38.30;;
86201;SDS011;76853;48.008;20.694;2024-03-02T04:46:41;39.73;;;38.57;;
86201;SDS011;76853;48.008;20.694;2024-03-02T04:47:44;37.42;;;36.95;;
86201;SDS011;76853;48.008;20.694;2024-03-02T04:48:51;36.48;;;36.22;;
86201;SDS011;76853;48.008;20.694;2024-03-02T04:50:00;39.22;;;38.48;;
86201;SDS011;76853;48.008;20.694;2024-03-02T04:51:03;38.27;;;37.98;;
86201;SDS011;76853;48.008;20.694;2024-03-02T04:52:07;39.82;;;39.38;;
86201;SDS011;76853;48.008;20.694;2024-03-02T04:53:10;41.72;;;41.02;;
86201;SDS011;76853;48.008;20.694;2024-03-02T04:54:14;41.57;;;40.83;;
86201;SDS011;76853;48.008;20.694;2024-03-02T04:55:17;41.97;;;40.68;;
86201;SDS011;76853;48.008;20.694;2024-03-02T04:56:31;43.27;;;42.07;;
86201;SDS011;76853;48.008;20.694;2024-03-02T04:57:35;40.83;;;40.55;;
86201;SDS011;76853;48.008;20.694;2024-03-02T04:58:39;42.65;;;42.18;;
86201;SDS011;76853;48.008;20.694;2024-03-02T04:59:45;41.08;;;40.58;;
86201;SDS011;76853;48.008;20.694;2024-03-02T05:00:49;42.12;;;40.82;;
86201;SDS011;76853;48.008;20.694;2024-03-02T05:01:53;40.47;;;39.72;;
86201;SDS011;76853;48.008;20.694;2024-03-02T05:02:56;40.82;;;39.67;;
86201;SDS011;76853;48.008;20.694;2024-03-02T05:04:02;43.92;;;42.68;;
86201;SDS011;76853;48.008;20.694;2024-03-02T05:05:05;44.65;;;43.20;;
86201;SDS011;76853;48.008;20.694;2024-03-02T05:06:09;50.65;;;49.82;;
86201;SDS011;76853;48.008;20.694;2024-03-02T05:07:12;49.75;;;49.20;;
86201;SDS011;76853;48.008;20.694;2024-03-02T05:08:16;44.40;;;43.65;;
86201;SDS011;76853;48.008;20.694;2024-03-02T05:09:22;43.83;;;42.83;;
86201;SDS011;76853;48.008;20.694;2024-03-02T05:10:26;43.85;;;42.68;;
86201;SDS011;76853;48.008;20.694;2024-03-02T05:11:29;45.47;;;44.37;;
86201;SDS011;76853;48.008;20.694;2024-03-02T05:13:11;43.72;;;43.55;;
86201;SDS011;76853;48.008;20.694;2024-03-02T05:14:18;44.15;;;43.33;;
86201;SDS011;76853;48.008;20.694;2024-03-02T05:15:24;46.55;;;45.48;;
86201;SDS011;76853;48.008;20.694;2024-03-02T05:16:32;46.32;;;45.23;;
86201;SDS011;76853;48.008;20.694;2024-03-02T05:17:41;46.40;;;45.47;;
86201;SDS011;76853;48.008;20.694;2024-03-02T05:18:48;47.17;;;46.32;;
86201;SDS011;76853;48.008;20.694;2024-03-02T05:19:51;46.22;;;45.62;;
86201;SDS011;76853;48.008;20.694;2024-03-02T05:20:54;44.38;;;44.15;;
86201;SDS011;76853;48.008;20.694;2024-03-02T05:21:57;45.47;;;44.72;;
86201;SDS011;76853;48.008;20.694;2024-03-02T05:23:02;45.75;;;45.07;;
86201;SDS011;76853;48.008;20.694;2024-03-02T05:24:06;46.15;;;45.27;;
86201;SDS011;76853;48.008;20.694;2024-03-02T05:25:10;46.68;;;45.70;;
86201;SDS011;76853;48.008;20.694;2024-03-02T05:26:15;46.35;;;45.17;;
86201;SDS011;76853;48.008;20.694;2024-03-02T05:27:22;45.53;;;44.53;;
86201;SDS011;76853;48.008;20.694;2024-03-02T05:28:25;44.80;;;44.37;;
86201;SDS011;76853;48.008;20.694;2024-03-02T05:29:28;43.17;;;42.90;;
86201;SDS011;76853;48.008;20.694;2024-03-02T05:30:32;42.48;;;41.92;;
86201;SDS011;76853;48.008;20.694;2024-03-02T05:31:35;43.97;;;43.77;;
86201;SDS011;76853;48.008;20.694;2024-03-02T05:32:38;44.60;;;44.13;;
86201;SDS011;76853;48.008;20.694;2024-03-02T05:33:45;43.20;;;42.38;;
86201;SDS011;76853;48.008;20.694;2024-03-02T05:34:49;41.17;;;41.07;;
86201;SDS011;76853;48.008;20.694;2024-03-02T05:35:53;40.25;;;40.07;;
86201;SDS011;76853;48.008;20.694;2024-03-02T05:36:58;39.60;;;39.23;;
86201;SDS011;76853;48.008;20.694;2024-03-02T05:38:03;40.52;;;40.38;;
86201;SDS011;76853;48.008;20.694;2024-03-02T05:39:07;40.92;;;40.77;;
86201;SDS011;76853;48.008;20.694;2024-03-02T05:40:11;40.73;;;40.50;;
86201;SDS011;76853;48.008;20.694;2024-03-02T05:41:19;41.28;;;40.78;;
86201;SDS011;76853;48.008;20.694;2024-03-02T05:42:23;39.87;;;39.33;;
86201;SDS011;76853;48.008;20.694;2024-03-02T05:43:27;41.58;;;41.58;;
86201;SDS011;76853;48.008;20.694;2024-03-02T05:44:31;43.15;;;42.92;;
86201;SDS011;76853;48.008;20.694;2024-03-02T05:45:35;42.65;;;41.40;;
86201;SDS011;76853;48.008;20.694;2024-03-02T05:46:38;40.75;;;40.23;;
86201;SDS011;76853;48.008;20.694;2024-03-02T05:47:43;39.42;;;39.00;;
86201;SDS011;76853;48.008;20.694;2024-03-02T05:48:51;38.10;;;38.08;;
86201;SDS011;76853;48.008;20.694;2024-03-02T05:49:54;37.80;;;37.78;;
86201;SDS011;76853;48.008;20.694;2024-03-02T05:50:57;36.65;;;36.52;;
86201;SDS011;76853;48.008;20.694;2024-03-02T05:52:01;36.68;;;36.38;;
86201;SDS011;76853;48.008;20.694;2024-03-02T05:53:07;37.12;;;37.02;;
86201;SDS011;76853;48.008;20.694;2024-03-02T05:54:11;37.37;;;37.18;;
86201;SDS011;76853;48.008;20.694;2024-03-02T05:55:17;36.27;;;36.27;;
86201;SDS011;76853;48.008;20.694;2024-03-02T05:56:20;37.40;;;37.28;;
86201;SDS011;76853;48.008;20.694;2024-03-02T05:57:24;38.05;;;37.55;;
86201;SDS011;76853;48.008;20.694;2024-03-02T05:58:47;38.25;;;37.98;;
86201;SDS011;76853;48.008;20.694;2024-03-02T05:59:53;39.98;;;39.32;;
86201;SDS011;76853;48.008;20.694;2024-03-02T06:00:57;39.17;;;39.12;;
86201;SDS011;76853;48.008;20.694;2024-03-02T06:02:02;39.83;;;39.68;;
86201;SDS011;76853;48.008;20.694;2024-03-02T06:03:05;42.77;;;41.85;;
86201;SDS011;76853;48.008;20.694;2024-03-02T06:04:09;45.35;;;44.62;;
86201;SDS011;76853;48.008;20.694;2024-03-02T06:05:14;45.47;;;45.23;;
86201;SDS011;76853;48.008;20.694;2024-03-02T06:06:18;44.13;;;44.12;;
86201;SDS011;76853;48.008;20.694;2024-03-02T06:07:22;44.87;;;44.62;;
86201;SDS011;76853;48.008;20.694;2024-03-02T06:08:28;44.27;;;43.90;;
86201;SDS011;76853;48.008;20.694;2024-03-02T06:09:32;46.27;;;45.20;;
86201;SDS011;76853;48.008;20.694;2024-03-02T06:10:35;47.00;;;45.93;;
86201;SDS011;76853;48.008;20.694;2024-03-02T06:11:39;48.00;;;47.55;;
86201;SDS011;76853;48.008;20.694;2024-03-02T06:12:44;55.42;;;54.10;;
86201;SDS011;76853;48.008;20.694;2024-03-02T06:13:49;56.38;;;55.20;;
86201;SDS011;76853;48.008;20.694;2024-03-02T06:14:52;57.73;;;57.18;;
86201;SDS011;76853;48.008;20.694;2024-03-02T06:15:55;57.77;;;57.02;;
86201;SDS011;76853;48.008;20.694;2024-03-02T06:17:02;60.55;;;59.83;;
86201;SDS011;76853;48.008;20.694;2024-03-02T06:18:07;68.45;;;66.70;;